Time;durP1;ratioP1;P1;durP2;ratioP2;P2;SDS_P1;SDS_P2;PMS_P1;PMS_P2;Temp;Humidity;BMP_temperature;BMP_pressure;BME280_temperature;BME280_humidity;BME280_pressure;Samples;Min_cycle;Max_cycle;Signal;HPM_P1;HPM_P2
2023/10/14 00:03:35;;;;;;;0.10;0.10;;;;;;;-145.06;100.00;54141.50;10344869;28;20026;-69
2023/10/14 00:13:56;;;;;;;0.00;0.00;;;;;;;-145.06;100.00;54096.94;10358129;28;20026;-68
2023/10/14 00:19:04;;;;;;;0.00;0.00;;;;;;;-145.06;100.00;54086.81;10321491;28;20030;-69
2023/10/14 00:24:06;;;;;;;0.00;0.00;;;;;;;-145.06;100.00;54082.75;10337100;28;20059;-68
2023/10/14 00:34:25;;;;;;;0.10;0.10;;;;;;;-145.06;100.00;54072.63;10344386;28;20062;-68
2023/10/14 00:39:27;;;;;;;0.10;0.10;;;;;;;-145.06;100.00;54078.72;10353086;28;20018;-68
2023/10/14 00:44:28;;;;;;;0.10;0.10;;;;;;;-145.06;100.00;54054.41;10335946;28;20467;-68
2023/10/14 00:49:31;;;;;;;0.00;0.00;;;;;;;-145.06;100.00;54064.53;10336437;28;20069;-69
2023/10/14 00:59:34;;;;;;;0.10;0.10;;;;;;;-145.06;100.00;54042.25;10352222;28;20033;-67
2023/10/14 01:04:35;;;;;;;0.00;0.00;;;;;;;-145.06;100.00;54070.59;10338772;28;20046;-70
2023/10/14 01:09:53;;;;;;;0.10;0.10;;;;;;;-145.06;100.00;54066.56;10336571;28;20053;-70
2023/10/14 01:15:43;;;;;;;0.10;0.10;;;;;;;-145.06;100.00;54072.63;10332781;28;20018;-70
2023/10/14 01:25:15;;;;;;;0.10;0.10;;;;;;;-145.06;100.00;54084.78;10336575;28;20089;-69
2023/10/14 01:30:20;;;;;;;0.10;0.10;;;;;;;-145.06;100.00;54072.63;10343754;28;20392;-69
2023/10/14 01:35:31;;;;;;;0.10;0.10;;;;;;;-145.06;100.00;54038.19;10343439;28;20184;-69
2023/10/14 01:46:01;;;;;;;0.10;0.10;;;;;;;-145.06;100.00;54100.97;10333815;28;20038;-69
2023/10/14 01:51:03;;;;;;;0.00;0.00;;;;;;;-145.06;100.00;54090.84;10350383;28;20026;-68
2023/10/14 01:56:06;;;;;;;0.10;0.10;;;;;;;-145.06;100.00;54100.97;10319094;28;20280;-68
2023/10/14 02:06:16;;;;;;;0.10;0.10;;;;;;;-145.06;100.00;54078.72;10344175;28;20392;-68
2023/10/14 02:11:20;;;;;;;0.10;0.10;;;;;;;-145.06;100.00;54086.81;10349560;28;20029;-67
2023/10/14 02:16:40;;;;;;;0.10;0.10;;;;;;;-145.06;100.00;54103.00;10339095;28;20015;-68
2023/10/14 02:21:41;;;;;;;0.10;0.10;;;;;;;-145.06;100.00;54123.25;10349455;28;20026;-69
2023/10/14 02:26:41;;;;;;;0.10;0.10;;;;;;;-145.06;100.00;54096.94;10342639;28;20080;-69
2023/10/14 02:31:44;;;;;;;0.10;0.10;;;;;;;-145.06;100.00;54107.06;10325966;28;20040;-68
2023/10/14 02:36:51;;;;;;;0.10;0.10;;;;;;;-145.06;100.00;54082.75;10338353;28;20304;-68
2023/10/14 02:42:06;;;;;;;0.00;0.00;;;;;;;-145.06;100.00;54105.03;10354663;28;20021;-68
2023/10/14 02:47:08;;;;;;;0.10;0.10;;;;;;;-145.06;100.00;54090.84;10345980;28;20025;-68
2023/10/14 02:52:11;;;;;;;0.10;0.10;;;;;;;-145.06;100.00;54115.16;10350447;28;20046;-68
2023/10/14 02:57:13;;;;;;;0.00;0.00;;;;;;;-145.06;100.00;54096.94;10349785;28;20387;-67
2023/10/14 03:02:25;;;;;;;0.10;0.10;;;;;;;-145.06;100.00;54139.47;10357305;28;20022;-68
2023/10/14 03:07:33;;;;;;;0.10;0.10;;;;;;;-145.06;100.00;54103.00;10334001;28;20038;-67
2023/10/14 03:12:38;;;;;;;0.10;0.10;;;;;;;-145.06;100.00;54127.31;10355969;28;20053;-68
2023/10/14 03:17:42;;;;;;;0.00;0.00;;;;;;;-145.06;100.00;54111.09;10352938;28;20014;-67
2023/10/14 03:22:44;;;;;;;;;;;;;;;-145.06;100.00;54119.22;10357551;28;20377;-68
2023/10/14 03:28:14;;;;;;;0.10;0.10;;;;;;;-145.06;100.00;54125.28;10357705;28;19924;-68
2023/10/14 03:33:20;;;;;;;0.10;0.10;;;;;;;-145.06;100.00;54143.50;10355742;28;20034;-68
2023/10/14 03:38:33;;;;;;;0.10;0.10;;;;;;;-145.06;100.00;54147.56;10348130;28;20023;-68
2023/10/14 03:49:20;;;;;;;0.00;0.00;;;;;;;-145.06;100.00;54167.81;10348005;28;20042;-67
2023/10/14 03:54:24;;;;;;;0.00;0.00;;;;;;;-145.06;100.00;54186.03;10349644;28;20404;-68
2023/10/14 03:59:25;;;;;;;0.10;0.10;;;;;;;-145.06;100.00;54192.13;10350549;28;20033;-68
2023/10/14 04:04:26;;;;;;;0.10;0.10;;;;;;;-145.06;100.00;54228.56;10351433;28;20037;-67
2023/10/14 04:09:39;;;;;;;0.10;0.10;;;;;;;-145.06;100.00;54234.66;10356522;28;20054;-68
2023/10/14 04:14:40;;;;;;;0.10;0.10;;;;;;;-145.06;100.00;54218.44;10351451;28;20014;-68
2023/10/14 04:19:48;;;;;;;0.10;0.10;;;;;;;-145.06;100.00;54216.44;10349143;28;20691;-67
2023/10/14 04:24:50;;;;;;;0.10;0.10;;;;;;;-145.06;100.00;54202.25;10347894;28;20414;-67
2023/10/14 04:30:03;;;;;;;0.10;0.10;;;;;;;-145.06;100.00;54208.31;10351925;28;20033;-67
2023/10/14 04:35:05;;;;;;;0.10;0.10;;;;;;;-145.06;100.00;54169.84;10346072;28;20100;-67
2023/10/14 04:40:15;;;;;;;0.10;0.10;;;;;;;-145.06;100.00;54143.50;10353063;28;20055;-68
2023/10/14 04:45:16;;;;;;;0.10;0.10;;;;;;;-145.06;100.00;54228.56;10349596;28;20427;-68
2023/10/14 04:50:21;;;;;;;0.00;0.00;;;;;;;-145.06;100.00;54265.03;10344610;28;20083;-67
2023/10/14 04:55:25;;;;;;;0.00;0.00;;;;;;;-145.06;100.00;54260.97;10336019;28;20259;-67
2023/10/14 05:00:32;;;;;;;0.05;0.05;;;;;;;-145.06;100.00;54220.47;10348784;28;20087;-68
2023/10/14 05:05:33;;;;;;;0.10;0.10;;;;;;;-145.06;100.00;54230.59;10356703;28;20588;-67
2023/10/14 05:10:33;;;;;;;0.10;0.10;;;;;;;-145.06;100.00;54224.53;10350763;28;20109;-67
2023/10/14 05:15:39;;;;;;;0.10;0.10;;;;;;;-145.06;100.00;54258.97;10343206;28;20026;-68
2023/10/14 05:20:56;;;;;;;0.05;0.05;;;;;;;-145.06;100.00;54220.47;10354260;28;20064;-68
2023/10/14 05:25:58;;;;;;;0.10;0.10;;;;;;;-145.06;100.00;54188.06;10350680;28;20494;-68
2023/10/14 05:31:00;;;;;;;0.10;0.10;;;;;;;-145.06;100.00;54165.78;10358232;28;20021;-68
2023/10/14 05:36:07;;;;;;;0.10;0.10;;;;;;;-145.06;100.00;54204.28;10344604;28;20460;-68
2023/10/14 05:41:09;;;;;;;0.10;0.10;;;;;;;-145.06;100.00;54171.88;10352939;28;20030;-68
2023/10/14 05:46:12;;;;;;;0.10;0.10;;;;;;;-145.06;100.00;54159.72;10345605;28;20033;-68
2023/10/14 05:51:15;;;;;;;0.10;0.10;;;;;;;-145.06;100.00;54220.47;10343414;28;20028;-67
2023/10/14 05:56:15;;;;;;;0.10;0.10;;;;;;;-145.06;100.00;54188.06;10354553;28;20467;-68
2023/10/14 06:01:16;;;;;;;0.10;0.10;;;;;;;-145.06;100.00;54204.28;10345159;28;20038;-68
2023/10/14 06:06:21;;;;;;;0.00;0.00;;;;;;;-145.06;100.00;54202.25;10352031;28;20463;-67
2023/10/14 06:11:21;;;;;;;0.10;0.10;;;;;;;-145.06;100.00;54216.44;10338417;28;20035;-68
2023/10/14 06:16:25;;;;;;;0.10;0.10;;;;;;;-145.06;100.00;54226.56;10348842;28;20093;-68
2023/10/14 06:21:33;;;;;;;0.00;0.00;;;;;;;-145.06;100.00;54220.47;10350404;28;20507;-68
2023/10/14 06:26:34;;;;;;;0.00;0.00;;;;;;;-145.06;100.00;54348.06;10342210;28;20030;-68
2023/10/14 06:31:37;;;;;;;0.10;0.10;;;;;;;-145.06;100.00;54378.44;10331997;28;20030;-68
2023/10/14 06:36:37;;;;;;;0.00;0.00;;;;;;;-145.06;100.00;54554.66;10321506;28;20033;-68
2023/10/14 06:41:43;;;;;;;0.00;0.00;;;;;;;-145.06;100.00;54714.69;10340795;28;20419;-68
2023/10/14 06:46:44;;;;;;;0.00;0.00;;;;;;;-145.06;100.00;54589.09;10345420;28;20496;-68
2023/10/14 06:51:45;;;;;;;0.10;0.10;;;;;;;-145.06;100.00;54799.75;10342916;28;20022;-69
2023/10/14 06:56:45;;;;;;;0.10;0.10;;;;;;;-145.06;100.00;54965.88;10333624;28;20026;-67
2023/10/14 07:01:45;;;;;;;0.00;0.00;;;;;;;-145.06;100.00;54921.28;10339085;28;20033;-69
2023/10/14 07:06:48;;;;;;;0.00;0.00;;;;;;;-145.06;100.00;54712.66;10338868;28;20030;-68
2023/10/14 07:11:48;;;;;;;0.00;0.00;;;;;;;-145.06;100.00;54795.72;10332737;28;20030;-68
2023/10/14 07:16:50;;;;;;;0.10;0.10;;;;;;;-145.06;95.47;55105.63;10335446;28;20456;-68
2023/10/14 07:21:51;;;;;;;0.00;0.00;;;;;;;-145.06;91.36;55241.38;10335129;28;20057;-69
2023/10/14 07:26:51;;;;;;;0.00;0.00;;;;;;;-145.06;86.14;55356.84;10314311;28;20124;-69
2023/10/14 07:31:52;;;;;;;0.00;0.00;;;;;;;-145.06;83.15;55470.28;10334117;28;20080;-69
2023/10/14 07:36:53;;;;;;;0.00;0.00;;;;;;;-145.06;77.16;55587.81;10336739;28;20018;-69
2023/10/14 07:41:55;;;;;;;0.10;0.10;;;;;;;-145.06;75.96;55644.53;10340062;28;20552;-68
2023/10/14 07:46:55;;;;;;;0.00;0.00;;;;;;;-145.06;75.59;55695.19;10333375;28;20026;-69
2023/10/14 07:52:00;;;;;;;0.10;0.10;;;;;;;-145.06;73.10;55869.44;10333146;28;20029;-69
2023/10/14 07:57:02;;;;;;;0.10;0.10;;;;;;;-145.06;70.27;55861.31;10335076;28;20072;-69
2023/10/14 08:02:02;;;;;;;0.10;0.10;;;;;;;-145.06;66.82;55928.19;10332660;28;20034;-70
2023/10/14 08:07:06;;;;;;;0.00;0.00;;;;;;;-145.06;67.60;55962.63;10335709;28;20069;-69
2023/10/14 08:12:06;;;;;;;0.00;0.00;;;;;;;-145.06;70.17;55995.06;10313238;28;20030;-70
2023/10/14 08:17:11;;;;;;;0.00;0.00;;;;;;;-145.06;80.06;55806.63;10331768;28;20014;-70
2023/10/14 08:22:14;;;;;;;0.10;0.10;;;;;;;-145.06;89.40;55658.72;10333679;28;20025;-68
2023/10/14 08:27:14;;;;;;;0.00;0.00;;;;;;;-145.06;91.44;55626.31;10336903;28;20031;-69
2023/10/14 08:32:14;;;;;;;0.00;0.00;;;;;;;-145.06;91.42;55504.75;10341064;28;20386;-70
2023/10/14 08:37:15;;;;;;;0.00;0.00;;;;;;;-145.06;86.73;55614.16;10332198;28;20533;-69
2023/10/14 08:42:16;;;;;;;0.10;0.10;;;;;;;-145.06;81.28;55656.69;10329046;28;20522;-69
2023/10/14 08:47:16;;;;;;;0.10;0.10;;;;;;;-145.06;74.07;55764.06;10328106;28;20029;-69
2023/10/14 08:52:18;;;;;;;0.00;0.00;;;;;;;-145.06;72.16;55839.03;10329106;28;20026;-69
2023/10/14 08:57:22;;;;;;;0.00;0.00;;;;;;;-145.06;75.05;55812.69;10338998;28;20014;-69
2023/10/14 09:02:22;;;;;;;;;;;;;;;-145.06;73.69;55897.78;10330480;28;20386;-69
2023/10/14 09:07:23;;;;;;;0.00;0.00;;;;;;;-145.06;71.03;55909.97;10331410;28;19920;-68
2023/10/14 09:12:23;;;;;;;0.10;0.10;;;;;;;-145.06;73.88;55851.19;10329457;28;20069;-69
2023/10/14 09:17:23;;;;;;;0.00;0.00;;;;;;;-145.06;73.54;55835.00;10332506;28;20109;-69
2023/10/14 09:22:27;;;;;;;0.00;0.00;;;;;;;-145.06;70.51;55909.97;10333481;28;20391;-68
2023/10/14 09:27:30;;;;;;;0.08;0.08;;;;;;;-145.06;72.17;55887.66;10332865;28;20076;-69
2023/10/14 09:32:32;;;;;;;0.00;0.00;;;;;;;-145.06;72.54;55885.63;10340327;28;20498;-69
2023/10/14 09:37:32;;;;;;;0.00;0.00;;;;;;;-145.06;73.11;55901.84;10343620;28;20021;-68
2023/10/14 09:42:34;;;;;;;0.10;0.10;;;;;;;-145.06;68.77;55930.22;10317150;28;20026;-68
2023/10/14 09:47:34;;;;;;;0.00;0.00;;;;;;;-145.06;66.73;56027.47;10329115;28;20026;-69
2023/10/14 09:52:35;;;;;;;0.10;0.10;;;;;;;-145.06;74.39;55918.06;10318426;28;20488;-67
2023/10/14 09:57:38;;;;;;;0.00;0.00;;;;;;;-145.06;85.47;55760.03;10337259;28;20647;-67
2023/10/14 10:02:43;;;;;;;0.10;0.10;;;;;;;-145.06;88.62;55731.66;10340455;28;20494;-67
2023/10/14 10:08:01;;;;;;;0.00;0.00;;;;;;;-145.06;95.23;55664.78;10338536;28;20022;-69
2023/10/14 10:13:02;;;;;;;0.10;0.10;;;;;;;-145.06;98.65;55575.66;10335019;28;20472;-69
2023/10/14 10:18:05;;;;;;;0.10;0.10;;;;;;;-145.06;96.34;55602.00;10334800;28;20051;-69
2023/10/14 10:23:06;;;;;;;0.10;0.10;;;;;;;-145.06;93.22;55636.44;10334493;28;20026;-69
2023/10/14 10:28:26;;;;;;;0.00;0.00;;;;;;;-145.06;93.12;55644.53;10335643;28;20030;-68
2023/10/14 10:33:45;;;;;;;0.10;0.10;;;;;;;-145.06;91.20;55658.72;10334575;28;20443;-71
2023/10/14 10:38:46;;;;;;;0.10;0.10;;;;;;;-145.06;84.48;55753.94;10334123;28;20033;-69
2023/10/14 10:43:47;;;;;;;0.00;0.00;;;;;;;-145.06;89.05;55681.00;10334108;28;20365;-69
2023/10/14 10:48:47;;;;;;;0.10;0.10;;;;;;;-145.06;88.63;55699.25;10333315;28;20018;-68
2023/10/14 10:53:52;;;;;;;0.10;0.10;;;;;;;-145.06;87.63;55676.94;10315811;28;20014;-68
2023/10/14 10:58:52;;;;;;;0.00;0.00;;;;;;;-145.06;82.99;55723.56;10339414;28;20014;-69
2023/10/14 11:03:53;;;;;;;0.00;0.00;;;;;;;-145.06;83.66;55804.59;10333346;28;20034;-67
2023/10/14 11:08:53;;;;;;;0.10;0.10;;;;;;;-145.06;91.62;55711.41;10332248;28;20469;-69
2023/10/14 11:13:56;;;;;;;0.10;0.10;;;;;;;-145.06;94.21;55630.34;10332886;28;20073;-68
2023/10/14 11:18:57;;;;;;;0.00;0.00;;;;;;;-145.06;100.00;55561.47;10331698;28;20113;-69
2023/10/14 11:23:57;;;;;;;0.00;0.00;;;;;;;-145.06;100.00;55492.59;10355847;28;20030;-69
2023/10/14 11:28:59;;;;;;;0.10;0.10;;;;;;;-145.06;100.00;55435.84;10344629;28;20018;-68
2023/10/14 11:34:02;;;;;;;0.10;0.10;;;;;;;-145.06;100.00;55352.78;10349528;28;20023;-69
2023/10/14 11:39:13;;;;;;;0.10;0.10;;;;;;;-145.06;100.00;55395.34;10343639;28;20018;-68
2023/10/14 11:44:17;;;;;;;0.10;0.10;;;;;;;-145.06;100.00;55395.34;10348242;28;20037;-68
2023/10/14 11:49:18;;;;;;;0.10;0.10;;;;;;;-145.06;100.00;55435.84;10330879;28;20038;-67
2023/10/14 11:54:18;;;;;;;0.10;0.10;;;;;;;-145.06;100.00;55472.31;10338568;28;20034;-69
2023/10/14 11:59:18;;;;;;;0.10;0.10;;;;;;;-145.06;100.00;55450.03;10343353;28;20034;-69
2023/10/14 12:04:18;;;;;;;0.10;0.10;;;;;;;-145.06;100.00;55490.56;10337977;28;20029;-69
2023/10/14 12:09:19;;;;;;;0.10;0.10;;;;;;;-145.06;100.00;55456.13;10344695;28;20022;-69
2023/10/14 12:14:20;;;;;;;0.10;0.10;;;;;;;-145.06;100.00;55468.28;10324899;28;20029;-68
2023/10/14 12:19:20;;;;;;;0.10;0.10;;;;;;;-145.06;99.18;55510.81;10339024;28;20030;-68
2023/10/14 12:24:21;;;;;;;0.10;0.10;;;;;;;-145.06;94.95;55543.22;10342208;28;20104;-68
2023/10/14 12:29:21;;;;;;;0.05;0.05;;;;;;;-145.06;98.50;55512.84;10345477;28;20368;-68
2023/10/14 12:34:22;;;;;;;0.10;0.10;;;;;;;-145.06;92.10;55551.34;10340494;28;20022;-68
2023/10/14 12:39:33;;;;;;;0.00;0.00;;;;;;;-145.06;91.96;55577.69;10329704;28;20490;-69
2023/10/14 12:44:35;;;;;;;0.10;0.10;;;;;;;-145.06;96.34;55553.38;10330794;28;20027;-69
2023/10/14 12:49:37;;;;;;;0.00;0.00;;;;;;;-145.06;94.14;55597.94;10356701;28;20052;-69
2023/10/14 12:54:39;;;;;;;0.00;0.00;;;;;;;-145.06;95.75;55589.84;10343869;28;20030;-68
2023/10/14 12:59:42;;;;;;;0.13;0.13;;;;;;;-145.06;83.59;55699.25;10329228;28;20081;-69
2023/10/14 13:04:42;;;;;;;0.10;0.10;;;;;;;-145.06;85.88;55666.81;10328271;28;20416;-68
2023/10/14 13:09:42;;;;;;;0.10;0.10;;;;;;;-145.06;87.36;55652.63;10340992;28;20022;-68
2023/10/14 13:14:44;;;;;;;0.10;0.10;;;;;;;-145.06;89.78;55593.88;10328249;28;20468;-69
2023/10/14 13:19:44;;;;;;;0.10;0.10;;;;;;;-145.06;91.22;55614.16;10339821;28;20049;-69
2023/10/14 13:24:49;;;;;;;0.00;0.00;;;;;;;-145.06;88.75;55630.34;10328919;28;20157;-68
2023/10/14 13:29:52;;;;;;;0.10;0.10;;;;;;;-145.06;91.26;55650.63;10331144;28;20049;-69
2023/10/14 13:34:53;;;;;;;0.10;0.10;;;;;;;-145.06;93.31;55599.97;10330187;28;20543;-69
2023/10/14 13:39:53;;;;;;;0.05;0.05;;;;;;;-145.06;94.34;55589.84;10319965;28;20028;-68
2023/10/14 13:44:54;;;;;;;0.10;0.10;;;;;;;-145.06;92.58;55597.94;10329551;28;20475;-68
2023/10/14 13:49:56;;;;;;;0.10;0.10;;;;;;;-145.06;94.06;55595.91;10310122;28;20455;-69
2023/10/14 13:54:56;;;;;;;0.10;0.10;;;;;;;-145.06;94.49;55585.78;10327604;28;20018;-69
2023/10/14 13:59:57;;;;;;;0.10;0.10;;;;;;;-145.06;95.23;55561.47;10327799;28;20022;-69
2023/10/14 14:05:00;;;;;;;0.10;0.10;;;;;;;-145.06;93.51;55620.22;10333030;28;20065;-69
2023/10/14 14:10:00;;;;;;;0.10;0.10;;;;;;;-145.06;93.85;55632.38;10332267;28;20089;-69
2023/10/14 14:15:01;;;;;;;0.10;0.10;;;;;;;-145.06;96.87;55533.09;10343564;28;20064;-69
2023/10/14 14:20:02;;;;;;;0.10;0.10;;;;;;;-145.06;98.89;55527.03;10332408;28;20022;-69
2023/10/14 14:25:05;;;;;;;0.10;0.10;;;;;;;-145.06;100.00;55498.66;10333469;28;20371;-70
2023/10/14 14:30:08;;;;;;;0.10;0.10;;;;;;;-145.06;99.09;55529.06;10332257;28;20030;-69
2023/10/14 14:35:09;;;;;;;0.10;0.10;;;;;;;-145.06;99.56;55514.88;10311090;28;20077;-69
2023/10/14 14:40:13;;;;;;;0.00;0.00;;;;;;;-145.06;100.00;55516.91;10321814;28;20392;-69
2023/10/14 14:45:25;;;;;;;0.00;0.00;;;;;;;-145.06;96.17;55551.34;10344453;28;20029;-69
2023/10/14 14:50:29;;;;;;;0.10;0.10;;;;;;;-145.06;93.62;55565.53;10342769;28;20117;-69
2023/10/14 14:55:30;;;;;;;0.10;0.10;;;;;;;-145.06;91.63;55589.84;10339526;28;20439;-69
2023/10/14 15:00:31;;;;;;;0.10;0.10;;;;;;;-145.06;89.77;55632.38;10335061;28;20359;-69
2023/10/14 15:05:37;;;;;;;0.13;0.13;;;;;;;-145.06;88.80;55634.41;10338268;28;20022;-68
2023/10/14 15:10:45;;;;;;;0.10;0.10;;;;;;;-145.06;92.45;55571.59;10340650;28;20014;-69
2023/10/14 15:15:49;;;;;;;0.10;0.10;;;;;;;-145.06;100.00;55500.69;10337767;28;20026;-69
2023/10/14 15:20:50;;;;;;;0.00;0.00;;;;;;;-145.06;100.00;55391.28;10343523;28;20128;-69
2023/10/14 15:25:51;;;;;;;0.10;0.10;;;;;;;-145.06;100.00;55366.97;10336249;28;20076;-68
2023/10/14 15:30:51;;;;;;;0.10;0.10;;;;;;;-145.06;100.00;55435.84;10336973;28;20026;-67
2023/10/14 15:35:53;;;;;;;0.10;0.10;;;;;;;-145.06;100.00;55409.53;10341611;28;20023;-68
2023/10/14 15:40:53;;;;;;;0.10;0.10;;;;;;;-145.06;100.00;55366.97;10341003;28;20439;-69
2023/10/14 15:45:59;;;;;;;0.10;0.10;;;;;;;-145.06;100.00;55277.84;10336309;28;20053;-68
2023/10/14 15:51:00;;;;;;;0.10;0.10;;;;;;;-145.06;100.00;55314.31;10336029;28;20334;-68
2023/10/14 15:56:02;;;;;;;0.10;0.10;;;;;;;-145.06;100.00;55285.94;10330731;28;20076;-68
2023/10/14 16:01:03;;;;;;;0.00;0.00;;;;;;;-145.06;100.00;55213.00;10340655;28;20502;-69
2023/10/14 16:06:04;;;;;;;0.00;0.00;;;;;;;-145.06;100.00;55202.88;10330905;28;20018;-69
2023/10/14 16:11:04;;;;;;;0.00;0.00;;;;;;;-145.06;100.00;55263.66;10316129;28;20029;-69
2023/10/14 16:16:04;;;;;;;0.10;0.10;;;;;;;-145.06;100.00;55261.63;10336451;28;20040;-68
2023/10/14 16:21:04;;;;;;;0.00;0.00;;;;;;;-145.06;100.00;55241.38;10332559;28;20029;-68
2023/10/14 16:26:08;;;;;;;0.00;0.00;;;;;;;-145.06;100.00;55215.03;10344241;28;20073;-69
2023/10/14 16:31:11;;;;;;;0.10;0.10;;;;;;;-145.06;100.00;55182.63;10336719;28;20353;-69
2023/10/14 16:36:16;;;;;;;0.10;0.10;;;;;;;-145.06;100.00;55166.41;10333272;28;20037;-69
2023/10/14 16:41:16;;;;;;;;;;;;;;;-145.06;100.00;55160.34;10319703;28;20030;-69
2023/10/14 16:46:17;;;;;;;0.00;0.00;;;;;;;-145.06;100.00;55200.84;10332075;28;19926;-68
2023/10/14 16:51:17;;;;;;;0.00;0.00;;;;;;;-145.06;100.00;55180.59;10331399;28;20065;-68
2023/10/14 16:56:18;;;;;;;0.00;0.00;;;;;;;-145.06;100.00;55166.41;10333507;28;20376;-68
2023/10/14 17:01:18;;;;;;;0.10;0.10;;;;;;;-145.06;100.00;55168.44;10341264;28;20037;-68
2023/10/14 17:06:18;;;;;;;0.10;0.10;;;;;;;-145.06;100.00;55160.34;10327597;28;20030;-69
2023/10/14 17:11:18;;;;;;;0.10;0.10;;;;;;;-145.06;100.00;55172.50;10339529;28;20030;-69
2023/10/14 17:16:19;;;;;;;0.10;0.10;;;;;;;-145.06;100.00;55192.75;10326379;28;20060;-69
2023/10/14 17:21:19;;;;;;;0.00;0.00;;;;;;;-145.06;100.00;55172.50;10329826;28;20085;-69
2023/10/14 17:26:19;;;;;;;0.00;0.00;;;;;;;-145.06;100.00;55164.38;10343365;28;20032;-69
2023/10/14 17:31:19;;;;;;;0.00;0.00;;;;;;;-145.06;100.00;55075.25;10348244;28;20071;-68
2023/10/14 17:36:20;;;;;;;0.03;0.03;;;;;;;-145.06;100.00;55050.94;10336121;28;20014;-69
2023/10/14 17:41:20;;;;;;;0.00;0.00;;;;;;;-145.06;100.00;55000.31;10323266;28;20032;-69
2023/10/14 17:46:26;;;;;;;0.10;0.10;;;;;;;-145.06;100.00;55014.47;10327313;28;20026;-68
2023/10/14 17:51:26;;;;;;;0.10;0.10;;;;;;;-145.06;100.00;55026.63;10326813;28;20030;-68
2023/10/14 17:56:27;;;;;;;0.05;0.05;;;;;;;-145.06;100.00;55006.38;10336680;28;20022;-69
2023/10/14 18:01:27;;;;;;;0.10;0.10;;;;;;;-145.06;100.00;54998.28;10332945;28;20104;-68
2023/10/14 18:06:32;;;;;;;0.10;0.10;;;;;;;-145.06;100.00;54965.88;10326896;28;20435;-67
2023/10/14 18:11:33;;;;;;;0.00;0.00;;;;;;;-145.06;100.00;54971.94;10342302;28;20496;-68
2023/10/14 18:16:34;;;;;;;0.00;0.00;;;;;;;-145.06;100.00;54994.22;10337831;28;20403;-68
2023/10/14 18:21:34;;;;;;;0.10;0.10;;;;;;;-145.06;100.00;54976.00;10347095;28;20033;-68
2023/10/14 18:26:37;;;;;;;0.10;0.10;;;;;;;-145.06;100.00;54945.59;10337198;28;20050;-67
2023/10/14 18:31:37;;;;;;;0.10;0.10;;;;;;;-145.06;100.00;54941.56;10346269;28;20024;-69
2023/10/14 18:36:39;;;;;;;0.10;0.10;;;;;;;-145.06;100.00;55014.47;10342203;28;20026;-68
2023/10/14 18:41:39;;;;;;;0.00;0.00;;;;;;;-145.06;100.00;55008.41;10340136;28;20030;-69
2023/10/14 18:46:39;;;;;;;0.00;0.00;;;;;;;-145.06;100.00;55026.63;10349359;28;20041;-69
2023/10/14 18:51:41;;;;;;;0.00;0.00;;;;;;;-145.06;100.00;55097.53;10335384;28;20328;-69
2023/10/14 18:56:41;;;;;;;0.10;0.10;;;;;;;-145.06;100.00;55138.06;10340652;28;20026;-69
2023/10/14 19:01:41;;;;;;;0.00;0.00;;;;;;;-145.06;100.00;55119.81;10346456;28;20414;-69
2023/10/14 19:06:42;;;;;;;0.03;0.03;;;;;;;-145.06;100.00;55107.66;10343266;28;20018;-68
2023/10/14 19:11:42;;;;;;;0.00;0.00;;;;;;;-145.06;100.00;55014.47;10343573;28;20027;-69
2023/10/14 19:16:42;;;;;;;0.05;0.05;;;;;;;-145.06;100.00;54992.19;10331947;28;20014;-69
2023/10/14 19:21:43;;;;;;;0.00;0.00;;;;;;;-145.06;100.00;54933.44;10335270;28;20034;-69
2023/10/14 19:26:43;;;;;;;0.00;0.00;;;;;;;-145.06;100.00;54907.13;10333936;28;20057;-69
2023/10/14 19:31:43;;;;;;;0.08;0.08;;;;;;;-145.06;100.00;54913.19;10337064;28;20044;-70
2023/10/14 19:36:43;;;;;;;0.00;0.00;;;;;;;-145.06;100.00;54888.88;10341903;28;20380;-69
2023/10/14 19:41:44;;;;;;;0.00;0.00;;;;;;;-145.06;100.00;54897.00;10333382;28;20025;-68
2023/10/14 19:46:46;;;;;;;0.00;0.00;;;;;;;-145.06;100.00;54905.09;10322385;28;20030;-68
2023/10/14 19:51:47;;;;;;;0.00;0.00;;;;;;;-145.06;100.00;54892.94;10316749;28;20409;-69
2023/10/14 19:56:47;;;;;;;0.00;0.00;;;;;;;-145.06;100.00;54892.94;10331038;28;20014;-69
2023/10/14 20:01:47;;;;;;;0.00;0.00;;;;;;;-145.06;100.00;54888.88;10332214;28;20025;-69
2023/10/14 20:06:49;;;;;;;0.00;0.00;;;;;;;-145.06;100.00;54894.97;10333665;28;20487;-69
2023/10/14 20:11:49;;;;;;;0.03;0.03;;;;;;;-145.06;100.00;54911.16;10333481;28;20076;-69
2023/10/14 20:16:51;;;;;;;0.10;0.10;;;;;;;-145.06;100.00;54897.00;10331303;28;20014;-68
2023/10/14 20:21:51;;;;;;;0.00;0.00;;;;;;;-145.06;100.00;54860.53;10329873;28;20026;-69
2023/10/14 20:26:51;;;;;;;0.10;0.10;;;;;;;-145.06;100.00;54860.53;10330777;28;20030;-68
2023/10/14 20:31:54;;;;;;;0.00;0.00;;;;;;;-145.06;100.00;54846.34;10345542;28;20022;-68
2023/10/14 20:36:57;;;;;;;0.00;0.00;;;;;;;-145.06;100.00;54805.84;10334190;28;20058;-67
2023/10/14 20:42:02;;;;;;;0.00;0.00;;;;;;;-145.06;100.00;54771.41;10329727;28;20480;-67
2023/10/14 20:47:02;;;;;;;0.10;0.10;;;;;;;-145.06;100.00;54718.72;10335180;28;20081;-67
2023/10/14 20:52:04;;;;;;;0.00;0.00;;;;;;;-145.06;100.00;54668.09;10330843;28;20053;-67
2023/10/14 20:57:07;;;;;;;0.00;0.00;;;;;;;-145.06;100.00;54627.59;10329757;28;20018;-67
2023/10/14 21:02:08;;;;;;;0.00;0.00;;;;;;;-145.06;100.00;54670.13;10333403;28;20018;-68
2023/10/14 21:07:11;;;;;;;0.00;0.00;;;;;;;-145.06;100.00;54657.97;10338905;28;20034;-68
2023/10/14 21:12:11;;;;;;;0.00;0.00;;;;;;;-145.06;100.00;54631.63;10329613;28;20028;-68
2023/10/14 21:17:11;;;;;;;0.00;0.00;;;;;;;-145.06;100.00;54670.13;10329231;28;20114;-68
2023/10/14 21:22:12;;;;;;;0.00;0.00;;;;;;;-145.06;100.00;54708.59;10329858;28;20305;-67
2023/10/14 21:27:16;;;;;;;0.03;0.03;;;;;;;-145.06;100.00;54757.22;10330329;28;20030;-68
2023/10/14 21:32:16;;;;;;;0.00;0.00;;;;;;;-145.06;100.00;54734.94;10336307;28;20096;-68
2023/10/14 21:37:16;;;;;;;0.00;0.00;;;;;;;-145.06;100.00;54670.13;10328049;28;20025;-68
2023/10/14 21:42:18;;;;;;;0.10;0.10;;;;;;;-145.06;100.00;54627.59;10329840;28;20105;-69
2023/10/14 21:47:18;;;;;;;0.00;0.00;;;;;;;-145.06;100.00;54615.44;10326457;28;20539;-71
2023/10/14 21:52:19;;;;;;;0.00;0.00;;;;;;;-145.06;100.00;54564.78;10326788;28;20057;-70
2023/10/14 21:57:19;;;;;;;0.10;0.10;;;;;;;-145.06;100.00;54570.88;10327132;28;20032;-69
2023/10/14 22:02:20;;;;;;;0.00;0.00;;;;;;;-145.06;100.00;54516.19;10327481;28;20097;-70
2023/10/14 22:07:22;;;;;;;0.00;0.00;;;;;;;-145.06;100.00;54499.97;10327219;28;20701;-69
2023/10/14 22:12:22;;;;;;;0.00;0.00;;;;;;;-145.06;100.00;54512.13;10326587;28;20030;-69
2023/10/14 22:17:24;;;;;;;0.00;0.00;;;;;;;-145.06;100.00;54499.97;10308980;28;20022;-69
2023/10/14 22:22:25;;;;;;;0.10;0.10;;;;;;;-145.06;100.00;54469.59;10326709;28;20373;-68
2023/10/14 22:27:27;;;;;;;0.00;0.00;;;;;;;-145.06;100.00;54467.56;10308997;28;20030;-69
2023/10/14 22:32:27;;;;;;;0.03;0.03;;;;;;;-145.06;100.00;54439.22;10317920;28;20027;-69
2023/10/14 22:37:28;;;;;;;0.00;0.00;;;;;;;-145.06;100.00;54421.00;10341084;28;20479;-69
2023/10/14 22:42:28;;;;;;;0.00;0.00;;;;;;;-145.06;100.00;54433.13;10346610;28;20451;-69
2023/10/14 22:47:29;;;;;;;0.03;0.03;;;;;;;-145.06;100.00;54410.84;10345271;28;20030;-68
2023/10/14 22:52:29;;;;;;;0.00;0.00;;;;;;;-145.06;100.00;54406.81;10316755;28;20399;-68
2023/10/14 22:57:30;;;;;;;0.00;0.00;;;;;;;-145.06;100.00;54386.56;10317142;28;20091;-67
2023/10/14 23:02:32;;;;;;;0.00;0.00;;;;;;;-145.06;100.00;54386.56;10332618;28;20033;-69
2023/10/14 23:07:34;;;;;;;0.03;0.03;;;;;;;-145.06;100.00;54394.66;10331798;28;20162;-68
2023/10/14 23:12:35;;;;;;;0.00;0.00;;;;;;;-145.06;100.00;54390.59;10345262;28;21324;-68
2023/10/14 23:17:38;;;;;;;0.00;0.00;;;;;;;-145.06;100.00;54435.16;10339759;28;20064;-69
2023/10/14 23:22:38;;;;;;;0.00;0.00;;;;;;;-145.06;100.00;54400.72;10335113;28;20037;-68